Time;durP1;ratioP1;P1;durP2;ratioP2;P2;SDS_P1;SDS_P2;PMS_P1;PMS_P2;Temp;Humidity;BMP_temperature;BMP_pressure;BME280_temperature;BME280_humidity;BME280_pressure;Samples;Min_cycle;Max_cycle;Signal;HPM_P1;HPM_P2
2021/03/14 00:01:50;;;;;;;1.60;1.27;;;3.40;99.90;;;;;;5072530;28;20251;-70
2021/03/14 00:04:16;;;;;;;1.53;0.90;;;3.40;99.90;;;;;;5072063;28;20180;-70
2021/03/14 00:06:41;;;;;;;1.03;0.70;;;3.40;99.90;;;;;;5072443;28;20537;-69
2021/03/14 00:09:07;;;;;;;1.93;1.30;;;3.40;99.90;;;;;;5072243;28;20185;-70
2021/03/14 00:11:32;;;;;;;0.80;0.60;;;3.40;99.90;;;;;;5072214;28;20196;-69
2021/03/14 00:13:58;;;;;;;0.53;0.53;;;3.40;99.90;;;;;;5071872;28;20165;-70
2021/03/14 00:16:23;;;;;;;1.57;1.00;;;3.40;99.90;;;;;;5072081;28;20603;-70
2021/03/14 00:18:49;;;;;;;1.10;1.00;;;3.40;99.90;;;;;;5072107;28;20235;-70
2021/03/14 00:21:16;;;;;;;0.90;0.80;;;3.50;99.90;;;;;;5072079;28;20720;-70
2021/03/14 00:23:42;;;;;;;0.83;0.80;;;3.50;99.90;;;;;;5071618;28;20639;-69
2021/03/14 00:26:07;;;;;;;1.40;1.10;;;3.50;99.90;;;;;;5071947;28;20472;-70
2021/03/14 00:28:33;;;;;;;1.13;1.03;;;3.60;99.90;;;;;;5071950;28;20181;-70
2021/03/14 00:30:59;;;;;;;1.77;1.10;;;3.60;99.90;;;;;;5070464;28;20242;-70
2021/03/14 00:33:25;;;;;;;1.47;1.37;;;3.70;99.90;;;;;;5071416;28;20175;-70
2021/03/14 00:35:50;;;;;;;0.87;0.70;;;3.80;99.90;;;;;;5071677;28;20169;-70
2021/03/14 00:38:16;;;;;;;1.70;1.00;;;3.80;99.90;;;;;;5071664;28;20465;-70
2021/03/14 00:40:41;;;;;;;1.20;0.90;;;3.80;99.90;;;;;;5070786;28;20191;-70
2021/03/14 00:43:08;;;;;;;3.63;1.00;;;3.80;99.90;;;;;;5071577;28;20173;-69
2021/03/14 00:45:36;;;;;;;1.43;1.00;;;3.70;99.90;;;;;;5071187;28;20177;-70
2021/03/14 00:48:05;;;;;;;1.83;1.00;;;3.60;99.90;;;;;;5071497;28;20780;-69
2021/03/14 00:50:37;;;;;;;1.00;1.00;;;3.50;99.90;;;;;;5071385;28;20469;-69
2021/03/14 00:53:03;;;;;;;2.30;1.03;;;3.40;99.90;;;;;;5071377;28;20464;-69
2021/03/14 00:55:29;;;;;;;2.40;1.03;;;3.40;99.90;;;;;;5070893;28;20932;-69
2021/03/14 00:57:54;;;;;;;1.53;1.43;;;3.30;99.90;;;;;;5071311;28;20469;-70
2021/03/14 01:00:20;;;;;;;1.00;0.90;;;3.40;99.90;;;;;;5071239;28;20197;-69
2021/03/14 01:02:46;;;;;;;0.70;0.60;;;3.40;99.90;;;;;;5071249;28;20540;-69
2021/03/14 01:05:12;;;;;;;4.20;1.07;;;3.40;99.90;;;;;;5070870;28;20417;-70
2021/03/14 01:07:37;;;;;;;1.07;0.63;;;3.30;99.90;;;;;;5071028;28;20173;-69
2021/03/14 01:10:04;;;;;;;0.93;0.60;;;3.30;99.90;;;;;;5069746;28;20177;-69
2021/03/14 01:12:30;;;;;;;0.80;0.60;;;3.30;99.90;;;;;;5071070;28;20180;-69
2021/03/14 01:14:55;;;;;;;1.23;0.70;;;3.20;99.90;;;;;;5070715;28;20416;-69
2021/03/14 01:17:21;;;;;;;0.50;0.47;;;3.20;99.90;;;;;;5070921;28;20208;-69
2021/03/14 01:19:46;;;;;;;0.70;0.67;;;3.20;99.90;;;;;;5071076;28;20161;-69
2021/03/14 01:22:12;;;;;;;0.70;0.70;;;3.20;99.90;;;;;;5070994;28;20200;-69
2021/03/14 01:24:37;;;;;;;2.70;1.33;;;3.10;99.90;;;;;;5070833;28;20655;-69
2021/03/14 01:27:03;;;;;;;0.80;0.80;;;3.10;99.90;;;;;;5071207;28;20638;-69
2021/03/14 01:29:28;;;;;;;0.60;0.60;;;3.20;99.90;;;;;;5071111;28;20192;-69
2021/03/14 01:31:54;;;;;;;1.37;0.80;;;3.20;99.90;;;;;;5070914;28;20197;-69
2021/03/14 01:34:19;;;;;;;1.30;1.10;;;3.20;99.90;;;;;;5070526;28;20173;-69
2021/03/14 01:36:45;;;;;;;0.80;0.70;;;3.20;99.90;;;;;;5070633;28;20211;-69
2021/03/14 01:39:11;;;;;;;0.77;0.77;;;3.20;99.90;;;;;;5070675;28;20179;-69
2021/03/14 01:41:36;;;;;;;0.90;0.90;;;3.30;99.90;;;;;;5070622;28;20184;-69
2021/03/14 01:44:02;;;;;;;0.90;0.73;;;3.30;99.90;;;;;;5070396;28;20252;-68
2021/03/14 01:46:28;;;;;;;0.80;0.80;;;3.40;99.90;;;;;;5070720;28;20195;-69
2021/03/14 01:48:54;;;;;;;0.70;0.70;;;3.40;99.90;;;;;;5070627;28;20173;-69
2021/03/14 01:51:21;;;;;;;1.07;0.97;;;3.30;99.90;;;;;;5070367;28;20991;-69
2021/03/14 01:53:47;;;;;;;0.70;0.70;;;3.30;99.90;;;;;;5070213;28;20489;-69
2021/03/14 01:56:13;;;;;;;0.60;0.60;;;3.30;99.90;;;;;;5070236;28;20466;-70
2021/03/14 01:58:40;;;;;;;1.47;0.77;;;3.40;99.90;;;;;;5070475;28;20501;-68
2021/03/14 02:01:05;;;;;;;0.73;0.73;;;3.30;99.90;;;;;;5070416;28;20447;-69
2021/03/14 02:03:31;;;;;;;0.73;0.73;;;3.30;99.90;;;;;;5070247;28;20415;-69
2021/03/14 02:05:57;;;;;;;0.50;0.50;;;3.20;99.90;;;;;;5070464;28;20165;-70
2021/03/14 02:08:22;;;;;;;0.63;0.63;;;3.30;99.90;;;;;;5070997;28;20533;-70
2021/03/14 02:10:51;;;;;;;0.60;0.50;;;3.30;99.90;;;;;;5070462;28;20200;-70
2021/03/14 02:13:23;;;;;;;0.50;0.50;;;3.30;99.90;;;;;;5070234;28;20206;-69
2021/03/14 02:15:55;;;;;;;0.53;0.50;;;3.20;99.90;;;;;;5070361;28;20490;-69
2021/03/14 02:18:23;;;;;;;3.90;0.70;;;3.20;99.90;;;;;;5070380;28;20411;-69
2021/03/14 02:20:48;;;;;;;0.70;0.70;;;3.20;99.90;;;;;;5070132;28;20438;-69
2021/03/14 02:23:31;;;;;;;1.10;0.70;;;3.20;99.90;;;;;;5070140;28;20789;-70
2021/03/14 02:26:07;;;;;;;0.70;0.70;;;3.20;99.90;;;;;;5070372;28;20196;-69
2021/03/14 02:28:34;;;;;;;0.63;0.53;;;3.20;99.90;;;;;;5070323;28;20414;-69
2021/03/14 02:31:01;;;;;;;0.60;0.50;;;3.20;99.90;;;;;;5070244;28;20434;-69
2021/03/14 02:33:29;;;;;;;0.70;0.70;;;3.20;99.90;;;;;;5070026;28;20422;-69
2021/03/14 02:35:56;;;;;;;0.80;0.80;;;3.10;99.90;;;;;;5070386;28;20427;-69
2021/03/14 02:38:22;;;;;;;1.20;0.70;;;3.10;99.90;;;;;;5070210;28;20427;-69
2021/03/14 02:40:49;;;;;;;0.73;0.70;;;3.10;99.90;;;;;;5070153;28;20509;-69
2021/03/14 02:43:15;;;;;;;0.97;0.70;;;3.10;99.90;;;;;;5070022;28;20433;-68
2021/03/14 02:45:41;;;;;;;0.77;0.77;;;3.10;99.90;;;;;;5069887;28;20423;-69
2021/03/14 02:48:09;;;;;;;0.60;0.60;;;3.10;99.90;;;;;;5070188;28;20761;-70
2021/03/14 02:50:37;;;;;;;2.47;1.07;;;3.10;99.90;;;;;;5069851;28;20983;-69
2021/03/14 02:53:02;;;;;;;1.37;0.60;;;3.20;99.90;;;;;;5070095;28;21117;-69
2021/03/14 02:55:28;;;;;;;1.30;0.90;;;3.20;99.90;;;;;;5069501;28;20423;-69
2021/03/14 02:57:54;;;;;;;0.67;0.67;;;3.20;99.90;;;;;;5069960;28;20196;-70
2021/03/14 03:00:23;;;;;;;3.03;1.40;;;3.10;99.90;;;;;;5069859;28;20496;-69
2021/03/14 03:02:51;;;;;;;3.40;0.83;;;3.10;99.90;;;;;;5069930;28;20931;-69
2021/03/14 03:05:19;;;;;;;0.67;0.67;;;3.10;99.90;;;;;;5072661;28;20985;-69
2021/03/14 03:07:53;;;;;;;1.10;1.00;;;3.00;99.90;;;;;;5073617;28;20429;-70
2021/03/14 03:10:19;;;;;;;1.07;0.97;;;3.00;99.90;;;;;;5073745;28;20992;-69
2021/03/14 03:12:47;;;;;;;0.80;0.80;;;3.00;99.90;;;;;;5073391;28;20431;-69
2021/03/14 03:15:15;;;;;;;0.90;0.90;;;3.00;99.90;;;;;;5073043;28;20803;-70
2021/03/14 03:17:42;;;;;;;1.37;0.93;;;3.00;99.90;;;;;;5073120;28;20465;-69
2021/03/14 03:20:09;;;;;;;0.80;0.77;;;3.00;99.90;;;;;;5073146;28;20526;-70
2021/03/14 03:22:36;;;;;;;0.60;0.60;;;3.00;99.90;;;;;;5073166;28;20456;-69
2021/03/14 03:25:03;;;;;;;1.13;0.93;;;3.00;99.90;;;;;;5072838;28;20430;-69
2021/03/14 03:27:28;;;;;;;0.83;0.83;;;3.00;99.90;;;;;;5073238;28;20855;-69
2021/03/14 03:29:54;;;;;;;2.00;0.90;;;3.00;99.90;;;;;;5073001;28;20516;-69
2021/03/14 03:32:20;;;;;;;1.10;0.80;;;3.00;99.90;;;;;;5073011;28;20585;-69
2021/03/14 03:34:45;;;;;;;1.20;0.90;;;3.00;99.90;;;;;;5072641;28;20210;-70
2021/03/14 03:37:11;;;;;;;0.77;0.73;;;3.00;99.90;;;;;;5072905;28;20632;-69
2021/03/14 03:39:37;;;;;;;0.90;0.70;;;3.00;99.90;;;;;;5072971;28;20260;-69
2021/03/14 03:42:09;;;;;;;1.20;0.90;;;3.00;99.90;;;;;;5072895;28;20662;-69
2021/03/14 03:44:38;;;;;;;0.80;0.80;;;3.00;99.90;;;;;;5072472;28;20719;-69
2021/03/14 03:47:06;;;;;;;1.67;1.30;;;3.10;99.90;;;;;;5072670;28;20439;-70
2021/03/14 03:49:33;;;;;;;1.20;1.10;;;3.00;99.90;;;;;;5072792;28;20443;-69
2021/03/14 03:52:00;;;;;;;0.80;0.80;;;3.00;99.90;;;;;;5072661;28;20948;-70
2021/03/14 03:54:28;;;;;;;1.10;1.00;;;3.10;99.90;;;;;;5072255;28;20419;-70
2021/03/14 03:56:56;;;;;;;1.10;1.00;;;3.00;99.90;;;;;;5071621;28;20467;-70
2021/03/14 03:59:23;;;;;;;1.23;1.13;;;2.90;99.90;;;;;;5072577;28;20701;-69
2021/03/14 04:01:49;;;;;;;0.70;0.70;;;2.90;99.90;;;;;;5072444;28;20458;-69
2021/03/14 04:04:16;;;;;;;1.23;1.00;;;2.90;99.90;;;;;;5070852;28;20446;-69
2021/03/14 04:06:42;;;;;;;1.37;0.70;;;2.90;99.90;;;;;;5072255;28;20431;-68
2021/03/14 04:09:09;;;;;;;2.40;1.80;;;2.90;99.90;;;;;;5072305;28;20480;-69
2021/03/14 04:11:37;;;;;;;2.40;1.40;;;2.90;99.90;;;;;;5072263;28;20442;-69
2021/03/14 04:14:04;;;;;;;2.23;1.80;;;2.90;99.90;;;;;;5071770;28;20923;-69
2021/03/14 04:16:34;;;;;;;1.87;1.50;;;2.90;99.90;;;;;;5072287;28;20695;-69
2021/03/14 04:19:01;;;;;;;1.70;1.60;;;2.90;99.90;;;;;;5072053;28;20498;-68
2021/03/14 04:21:27;;;;;;;1.77;1.63;;;2.90;99.90;;;;;;5072039;28;20797;-69
2021/03/14 04:23:53;;;;;;;2.00;1.40;;;2.90;99.90;;;;;;5071781;28;21100;-69
2021/03/14 04:26:21;;;;;;;2.37;1.63;;;2.90;99.90;;;;;;5071934;28;20455;-69
2021/03/14 04:28:47;;;;;;;2.17;1.90;;;2.80;99.90;;;;;;5071844;28;20418;-69
2021/03/14 04:31:14;;;;;;;1.87;1.77;;;2.80;99.90;;;;;;5071866;28;20529;-69
2021/03/14 04:33:42;;;;;;;1.80;1.43;;;2.80;99.90;;;;;;5071417;28;20427;-69
2021/03/14 04:36:10;;;;;;;1.77;1.67;;;2.90;99.90;;;;;;5071796;28;20500;-69
2021/03/14 04:38:38;;;;;;;1.80;1.70;;;2.80;99.90;;;;;;5071665;28;20415;-69
2021/03/14 04:41:04;;;;;;;3.17;2.00;;;2.80;99.90;;;;;;5071688;28;20470;-69
2021/03/14 04:43:31;;;;;;;1.50;1.40;;;2.80;99.90;;;;;;5071301;28;20514;-70
2021/03/14 04:45:57;;;;;;;4.77;1.90;;;2.70;99.90;;;;;;5071452;28;20510;-69
2021/03/14 04:48:23;;;;;;;3.70;2.10;;;2.70;99.90;;;;;;5070276;28;20522;-69
2021/03/14 04:50:51;;;;;;;1.90;1.80;;;2.80;99.90;;;;;;5071542;28;20431;-69
2021/03/14 04:53:22;;;;;;;2.13;1.13;;;2.70;99.90;;;;;;5071407;28;20426;-69
2021/03/14 04:55:51;;;;;;;1.80;1.57;;;2.70;99.90;;;;;;5070744;28;20435;-69
2021/03/14 04:58:19;;;;;;;1.40;1.10;;;2.70;99.90;;;;;;5071686;28;20870;-69
2021/03/14 05:00:44;;;;;;;1.50;1.30;;;2.70;99.90;;;;;;5071793;28;20461;-69
2021/03/14 05:03:13;;;;;;;2.37;1.53;;;2.70;99.90;;;;;;5071540;28;20980;-69
2021/03/14 05:05:44;;;;;;;1.37;1.10;;;2.70;99.90;;;;;;5071046;28;20515;-69
2021/03/14 05:08:11;;;;;;;1.70;1.60;;;2.70;99.90;;;;;;5071379;28;20419;-69
2021/03/14 05:10:39;;;;;;;2.23;1.20;;;2.60;99.90;;;;;;5071217;28;20883;-69
2021/03/14 05:13:05;;;;;;;1.10;1.00;;;2.60;99.90;;;;;;5071196;28;20507;-69
2021/03/14 05:15:31;;;;;;;1.10;1.00;;;2.60;99.90;;;;;;5070957;28;20438;-69
2021/03/14 05:17:57;;;;;;;1.63;1.10;;;2.60;99.90;;;;;;5071056;28;20466;-69
2021/03/14 05:20:23;;;;;;;2.30;1.00;;;2.60;99.90;;;;;;5070999;28;20439;-69
2021/03/14 05:22:50;;;;;;;1.27;1.17;;;2.50;99.90;;;;;;5071028;28;20415;-69
2021/03/14 05:25:18;;;;;;;1.17;1.00;;;2.50;99.90;;;;;;5070626;28;20543;-69
2021/03/14 05:27:51;;;;;;;1.10;0.83;;;2.50;99.90;;;;;;5070615;28;20458;-69
2021/03/14 05:30:22;;;;;;;1.17;0.90;;;2.50;99.90;;;;;;5070936;28;20477;-69
2021/03/14 05:32:48;;;;;;;0.87;0.70;;;2.50;99.90;;;;;;5070925;28;20419;-70
2021/03/14 05:35:14;;;;;;;2.43;0.83;;;2.50;99.90;;;;;;5070500;28;20427;-69
2021/03/14 05:37:40;;;;;;;1.07;0.90;;;2.50;99.90;;;;;;5070653;28;20458;-69
2021/03/14 05:40:06;;;;;;;1.90;0.93;;;2.40;99.90;;;;;;5070665;28;20203;-69
2021/03/14 05:42:33;;;;;;;1.97;1.00;;;2.50;99.90;;;;;;5070866;28;20429;-69
2021/03/14 05:45:00;;;;;;;1.47;0.80;;;2.50;99.90;;;;;;5070161;28;20431;-69
2021/03/14 05:47:25;;;;;;;3.50;0.80;;;2.50;99.90;;;;;;5070403;28;20518;-70
2021/03/14 05:49:51;;;;;;;1.47;1.37;;;2.50;99.90;;;;;;5070412;28;20514;-69
2021/03/14 05:52:18;;;;;;;1.63;0.97;;;2.50;99.90;;;;;;5070172;28;20272;-69
2021/03/14 05:54:47;;;;;;;0.90;0.90;;;2.50;99.90;;;;;;5069870;28;20423;-70
2021/03/14 05:57:16;;;;;;;1.40;1.30;;;2.50;99.90;;;;;;5070093;28;20554;-69
2021/03/14 05:59:44;;;;;;;1.43;1.30;;;2.60;99.90;;;;;;5070452;28;20419;-69
2021/03/14 06:02:10;;;;;;;1.60;1.40;;;2.60;99.90;;;;;;5070510;28;20435;-69
2021/03/14 06:04:36;;;;;;;2.37;1.30;;;2.60;99.90;;;;;;5070143;28;20788;-69
2021/03/14 06:07:01;;;;;;;1.50;1.40;;;2.60;99.90;;;;;;5070584;28;20578;-69
2021/03/14 06:09:27;;;;;;;2.03;1.67;;;2.70;99.90;;;;;;5070420;28;20845;-70
2021/03/14 06:11:52;;;;;;;3.10;1.60;;;2.70;99.90;;;;;;5070441;28;20204;-70
2021/03/14 06:14:18;;;;;;;3.03;2.70;;;2.80;99.90;;;;;;5069955;28;20184;-70
2021/03/14 06:16:44;;;;;;;2.50;1.33;;;2.80;99.90;;;;;;5070160;28;20200;-70
2021/03/14 06:19:09;;;;;;;4.53;1.53;;;2.90;99.90;;;;;;5070399;28;20379;-70
2021/03/14 06:21:35;;;;;;;3.80;2.20;;;2.90;99.90;;;;;;5070226;28;20193;-69
2021/03/14 06:24:04;;;;;;;1.70;1.57;;;2.90;99.90;;;;;;5069996;28;20199;-70
2021/03/14 06:26:48;;;;;;;2.30;1.40;;;2.90;99.90;;;;;;5070239;28;20169;-69
2021/03/14 06:29:16;;;;;;;4.47;1.67;;;3.00;99.90;;;;;;5070273;28;20476;-70
2021/03/14 06:31:46;;;;;;;7.20;1.73;;;3.00;99.90;;;;;;5070062;28;20438;-70
2021/03/14 06:34:33;;;;;;;4.43;2.20;;;3.00;99.90;;;;;;5069837;28;20513;-70
2021/03/14 06:37:14;;;;;;;1.67;1.57;;;3.00;99.90;;;;;;5070076;28;20459;-69
2021/03/14 06:39:46;;;;;;;2.90;2.60;;;3.00;99.90;;;;;;5072604;28;20414;-70
2021/03/14 06:42:30;;;;;;;2.07;1.70;;;3.00;99.90;;;;;;5073972;28;20944;-69
2021/03/14 06:45:13;;;;;;;5.30;2.47;;;3.10;99.90;;;;;;5073528;28;20419;-69
2021/03/14 06:47:44;;;;;;;3.27;1.80;;;3.00;99.90;;;;;;5073999;28;20526;-69
2021/03/14 06:50:17;;;;;;;1.60;1.50;;;3.00;99.90;;;;;;5073855;28;20418;-69
2021/03/14 06:53:19;;;;;;;4.30;2.00;;;3.10;99.90;;;;;;5073850;28;21029;-69
2021/03/14 06:55:46;;;;;;;3.93;2.00;;;3.20;99.90;;;;;;5073435;28;20485;-70
2021/03/14 06:58:25;;;;;;;1.93;1.70;;;3.30;99.90;;;;;;5073665;28;20877;-70
2021/03/14 07:01:11;;;;;;;3.53;2.20;;;3.30;99.90;;;;;;5073520;28;20438;-70
2021/03/14 07:03:38;;;;;;;4.63;2.50;;;3.40;99.90;;;;;;5073233;28;20410;-69
2021/03/14 07:06:22;;;;;;;4.00;2.33;;;3.30;99.90;;;;;;5073532;28;20802;-69
2021/03/14 07:08:54;;;;;;;2.90;1.80;;;3.30;99.90;;;;;;5072326;28;20858;-70
2021/03/14 07:11:35;;;;;;;8.77;1.90;;;3.60;99.90;;;;;;5073460;28;20445;-70
2021/03/14 07:14:01;;;;;;;2.77;1.80;;;3.90;99.90;;;;;;5073103;28;20473;-70
2021/03/14 07:16:43;;;;;;;3.53;1.93;;;4.20;99.90;;;;;;5073562;28;20846;-70
2021/03/14 07:19:12;;;;;;;1.93;1.20;;;4.70;99.90;;;;;;5073490;28;20419;-70
2021/03/14 07:21:38;;;;;;;2.43;2.17;;;5.10;99.90;;;;;;5073407;28;20439;-70
2021/03/14 07:24:05;;;;;;;6.37;2.00;;;5.20;99.90;;;;;;5073092;28;20822;-70
2021/03/14 07:26:41;;;;;;;4.13;1.63;;;5.30;99.90;;;;;;5073333;28;20177;-70
2021/03/14 07:29:08;;;;;;;2.03;1.70;;;5.30;99.90;;;;;;5073442;28;20403;-70
2021/03/14 07:31:34;;;;;;;3.00;1.57;;;5.50;99.90;;;;;;5073223;28;20513;-70
2021/03/14 07:34:02;;;;;;;4.43;2.57;;;5.90;99.90;;;;;;5072931;28;20988;-70
2021/03/14 07:36:28;;;;;;;3.90;1.40;;;6.30;99.90;;;;;;5073277;28;20486;-70
2021/03/14 07:38:55;;;;;;;7.23;1.50;;;6.80;99.90;;;;;;5073398;28;20826;-70
2021/03/14 07:41:20;;;;;;;2.53;1.73;;;6.80;99.90;;;;;;5072902;28;20494;-70
2021/03/14 07:43:46;;;;;;;5.70;1.83;;;6.70;99.90;;;;;;5072622;28;20784;-70
2021/03/14 07:46:12;;;;;;;4.70;1.97;;;6.30;99.90;;;;;;5072952;28;20370;-70
2021/03/14 07:48:40;;;;;;;2.93;1.73;;;6.00;99.90;;;;;;5072958;28;20173;-70
2021/03/14 07:51:07;;;;;;;8.50;1.90;;;5.70;99.90;;;;;;5072588;28;20439;-70
2021/03/14 07:53:33;;;;;;;3.77;1.90;;;5.50;99.90;;;;;;5072301;28;20407;-70
2021/03/14 07:56:00;;;;;;;3.10;1.40;;;5.20;99.90;;;;;;5072452;28;20954;-70
2021/03/14 07:58:26;;;;;;;3.27;1.50;;;4.90;99.90;;;;;;5072578;28;20230;-70
2021/03/14 08:00:51;;;;;;;6.53;2.73;;;4.80;99.90;;;;;;5072645;28;20431;-70
2021/03/14 08:03:17;;;;;;;1.47;1.37;;;4.70;99.90;;;;;;5072337;28;20197;-70
2021/03/14 08:05:43;;;;;;;9.67;5.83;;;4.60;99.90;;;;;;5072274;28;20177;-70
2021/03/14 08:08:33;;;;;;;2.33;1.93;;;4.50;99.90;;;;;;5071764;28;20535;-70
2021/03/14 08:10:59;;;;;;;7.37;2.27;;;4.50;99.90;;;;;;5066654;28;20526;-70
2021/03/14 08:13:30;;;;;;;2.97;2.13;;;4.50;99.90;;;;;;5071855;28;20856;-70
2021/03/14 08:16:07;;;;;;;3.70;1.93;;;4.60;99.90;;;;;;5072142;28;20173;-70
2021/03/14 08:18:38;;;;;;;6.80;2.67;;;4.80;99.90;;;;;;5072159;28;20441;-71
2021/03/14 08:21:05;;;;;;;2.17;1.97;;;5.00;99.90;;;;;;5072028;28;20467;-71
2021/03/14 08:23:45;;;;;;;5.70;2.30;;;5.20;99.90;;;;;;5071628;28;20481;-70
2021/03/14 08:26:19;;;;;;;2.60;1.90;;;5.40;99.90;;;;;;5072088;28;20497;-70
2021/03/14 08:28:55;;;;;;;6.23;2.90;;;5.60;99.90;;;;;;5072075;28;20971;-70
2021/03/14 08:31:51;;;;;;;4.17;2.30;;;5.90;99.90;;;;;;5071993;28;20433;-71
2021/03/14 08:34:26;;;;;;;3.83;1.87;;;6.50;99.90;;;;;;5062953;28;20423;-70
2021/03/14 08:36:54;;;;;;;5.80;2.00;;;7.10;99.90;;;;;;5070512;28;20462;-71
2021/03/14 08:39:25;;;;;;;2.20;1.50;;;7.40;99.90;;;;;;5071723;28;20415;-70
2021/03/14 08:41:53;;;;;;;5.03;1.87;;;7.60;99.90;;;;;;5071610;28;20435;-70
2021/03/14 08:44:44;;;;;;;1.60;1.50;;;7.50;99.90;;;;;;5071238;28;20489;-70
2021/03/14 08:47:14;;;;;;;3.60;1.67;;;7.30;99.90;;;;;;5071556;28;20415;-72
2021/03/14 08:49:49;;;;;;;3.90;1.43;;;7.30;99.90;;;;;;5071509;28;20419;-71
2021/03/14 08:52:16;;;;;;;2.40;2.00;;;7.60;99.90;;;;;;5071462;28;20457;-70
2021/03/14 08:54:45;;;;;;;3.80;1.60;;;7.60;99.90;;;;;;5071150;28;20415;-70
2021/03/14 08:57:12;;;;;;;2.37;1.30;;;7.50;99.90;;;;;;5071202;28;20454;-71
2021/03/14 08:59:50;;;;;;;4.70;1.83;;;7.30;99.90;;;;;;5071327;28;20447;-70
2021/03/14 09:02:21;;;;;;;4.70;1.47;;;6.90;99.90;;;;;;5070598;28;20629;-70
2021/03/14 09:04:48;;;;;;;7.60;1.63;;;6.80;99.90;;;;;;5070901;28;20443;-71
2021/03/14 09:07:14;;;;;;;2.67;1.50;;;6.70;99.90;;;;;;5071326;28;20733;-71
2021/03/14 09:09:40;;;;;;;2.67;1.70;;;6.50;99.90;;;;;;5071195;28;20411;-71
2021/03/14 09:12:14;;;;;;;2.40;1.30;;;6.50;99.90;;;;;;5071020;28;20439;-71
2021/03/14 09:14:43;;;;;;;2.10;1.17;;;6.40;99.90;;;;;;5070788;28;20419;-70
2021/03/14 09:17:11;;;;;;;6.43;2.07;;;6.30;99.90;;;;;;5071057;28;20466;-71
2021/03/14 09:19:41;;;;;;;2.63;1.40;;;6.40;99.90;;;;;;5071049;28;20408;-71
2021/03/14 09:22:14;;;;;;;1.73;1.13;;;6.30;99.90;;;;;;5070867;28;20573;-70
2021/03/14 09:24:43;;;;;;;3.37;1.83;;;6.30;99.90;;;;;;5070763;28;20940;-70
2021/03/14 09:27:19;;;;;;;5.70;1.60;;;6.40;99.90;;;;;;5070862;28;20479;-70
2021/03/14 09:29:48;;;;;;;4.83;1.60;;;6.50;99.90;;;;;;5070878;28;20419;-71
2021/03/14 09:32:43;;;;;;;3.77;1.90;;;6.70;99.90;;;;;;5070729;28;20484;-71
2021/03/14 09:35:27;;;;;;;2.43;1.67;;;6.70;99.90;;;;;;5070524;28;20426;-71
2021/03/14 09:37:59;;;;;;;5.00;2.50;;;6.60;99.90;;;;;;5070785;28;20462;-70
2021/03/14 09:40:47;;;;;;;5.07;1.70;;;6.50;99.90;;;;;;5070615;28;20505;-72
2021/03/14 09:43:14;;;;;;;8.30;1.93;;;6.40;99.90;;;;;;5070882;28;20428;-71
2021/03/14 09:45:49;;;;;;;3.07;1.57;;;7.10;99.90;;;;;;5070539;28;20536;-71
2021/03/14 09:48:26;;;;;;;1.10;1.00;;;8.90;99.90;;;;;;5070720;28;20845;-71
2021/03/14 09:50:56;;;;;;;3.90;2.33;;;10.10;99.90;;;;;;5070519;28;20517;-71
2021/03/14 09:53:28;;;;;;;2.57;1.20;;;11.10;99.90;;;;;;5070579;28;20466;-71
2021/03/14 09:55:58;;;;;;;2.20;1.43;;;11.50;99.90;;;;;;5070652;28;20438;-71
2021/03/14 09:58:26;;;;;;;3.17;1.70;;;11.80;99.90;;;;;;5070518;28;20858;-71
2021/03/14 10:00:54;;;;;;;1.97;1.20;;;10.80;99.90;;;;;;5070387;28;20431;-71
2021/03/14 10:03:24;;;;;;;2.80;1.70;;;10.40;99.90;;;;;;5070252;28;20468;-71
2021/03/14 10:05:52;;;;;;;2.00;1.20;;;9.50;99.90;;;;;;5070612;28;20441;-71
2021/03/14 10:08:22;;;;;;;1.17;1.07;;;8.80;99.90;;;;;;5070490;28;20423;-72
2021/03/14 10:10:50;;;;;;;2.17;1.47;;;8.10;99.90;;;;;;5070312;28;20451;-70
2021/03/14 10:13:17;;;;;;;2.13;1.60;;;7.70;99.90;;;;;;5072233;28;20433;-71
2021/03/14 10:15:44;;;;;;;1.53;1.20;;;7.40;99.90;;;;;;5074595;28;20792;-70
2021/03/14 10:18:15;;;;;;;2.10;1.30;;;7.20;99.90;;;;;;5074579;28;20780;-70
2021/03/14 10:20:41;;;;;;;0.97;0.97;;;7.20;99.90;;;;;;5074426;28;20426;-70
2021/03/14 10:23:08;;;;;;;5.57;1.60;;;7.30;99.90;;;;;;5074455;28;20441;-71
2021/03/14 10:25:36;;;;;;;2.73;1.60;;;7.20;99.90;;;;;;5074098;28;20169;-71
2021/03/14 10:28:08;;;;;;;3.13;1.90;;;7.20;99.90;;;;;;5074526;28;20429;-70
2021/03/14 10:30:35;;;;;;;2.87;1.53;;;7.10;99.90;;;;;;5074318;28;20913;-71
2021/03/14 10:33:00;;;;;;;3.10;1.50;;;7.20;99.90;;;;;;5074149;28;20447;-71
2021/03/14 10:35:26;;;;;;;3.43;1.37;;;7.00;99.90;;;;;;5073973;28;20486;-70
2021/03/14 10:37:52;;;;;;;1.77;1.30;;;7.00;99.90;;;;;;5074339;28;20283;-70
2021/03/14 10:40:25;;;;;;;3.73;1.83;;;7.10;99.90;;;;;;5074239;28;20848;-70
2021/03/14 10:42:52;;;;;;;2.80;2.07;;;7.20;99.90;;;;;;5074438;28;20197;-70
2021/03/14 10:45:20;;;;;;;1.63;1.40;;;7.20;99.90;;;;;;5073985;28;20501;-70
2021/03/14 10:48:02;;;;;;;3.23;1.57;;;7.20;99.90;;;;;;5074248;28;20498;-70
2021/03/14 10:50:32;;;;;;;3.80;1.27;;;7.00;99.90;;;;;;5074171;28;21055;-71
2021/03/14 10:53:15;;;;;;;2.97;1.30;;;7.00;99.90;;;;;;5074040;28;20430;-71
2021/03/14 10:55:42;;;;;;;2.77;0.97;;;7.10;99.90;;;;;;5073383;28;20933;-71
2021/03/14 10:58:19;;;;;;;1.37;1.03;;;7.10;99.90;;;;;;5074083;28;20461;-70
2021/03/14 11:00:54;;;;;;;4.13;1.40;;;7.20;99.90;;;;;;5073572;28;20521;-70
2021/03/14 11:03:28;;;;;;;3.33;1.50;;;7.40;99.90;;;;;;5073490;28;20480;-71
2021/03/14 11:06:29;;;;;;;1.90;1.30;;;7.80;99.90;;;;;;5073546;28;20450;-71
2021/03/14 11:08:56;;;;;;;2.70;1.30;;;9.40;99.90;;;;;;5030944;28;20475;-71
2021/03/14 11:11:26;;;;;;;4.57;1.80;;;10.20;99.90;;;;;;5064761;28;20439;-71
2021/03/14 11:13:53;;;;;;;1.50;1.40;;;10.20;99.90;;;;;;5073194;28;20423;-71
2021/03/14 11:16:24;;;;;;;2.30;1.10;;;10.00;99.90;;;;;;5073228;28;20415;-70
2021/03/14 11:19:03;;;;;;;2.20;1.67;;;9.40;99.90;;;;;;5073426;28;20473;-71
2021/03/14 11:21:29;;;;;;;2.70;1.47;;;9.00;99.90;;;;;;5073247;28;20475;-71
2021/03/14 11:23:54;;;;;;;3.57;3.03;;;8.60;99.90;;;;;;5072563;28;20820;-71
2021/03/14 11:26:20;;;;;;;3.30;1.97;;;8.40;99.90;;;;;;5072781;28;20235;-71
2021/03/14 11:28:46;;;;;;;4.13;1.57;;;8.50;99.90;;;;;;5073214;28;20214;-71
2021/03/14 11:31:12;;;;;;;4.60;1.70;;;9.10;99.90;;;;;;5073017;28;20705;-72
2021/03/14 11:33:38;;;;;;;2.57;1.60;;;10.40;99.90;;;;;;5072648;28;20423;-71
2021/03/14 11:36:03;;;;;;;4.40;2.07;;;11.50;99.70;;;;;;5072921;28;20177;-71
2021/03/14 11:38:29;;;;;;;2.90;1.40;;;12.10;98.20;;;;;;5073186;28;20171;-70
2021/03/14 11:40:56;;;;;;;2.60;1.10;;;12.30;95.20;;;;;;5072943;28;20184;-71
2021/03/14 11:43:23;;;;;;;5.90;2.17;;;11.70;96.30;;;;;;5072535;28;20417;-72
2021/03/14 11:45:49;;;;;;;3.47;2.13;;;10.60;97.20;;;;;;5072930;28;20469;-70
2021/03/14 11:48:14;;;;;;;3.20;1.10;;;9.90;99.30;;;;;;5072735;28;20427;-71
2021/03/14 11:50:41;;;;;;;2.00;1.23;;;10.10;99.70;;;;;;5072742;28;20246;-71
2021/03/14 11:53:06;;;;;;;2.10;1.37;;;10.70;98.70;;;;;;5072602;28;20240;-71
2021/03/14 11:55:32;;;;;;;4.10;1.77;;;10.50;98.20;;;;;;5072101;28;20427;-71
2021/03/14 11:57:58;;;;;;;1.63;1.47;;;10.40;98.90;;;;;;5072584;28;20286;-71
2021/03/14 12:00:24;;;;;;;1.63;1.33;;;10.20;99.30;;;;;;5072400;28;20204;-70
2021/03/14 12:02:49;;;;;;;2.00;1.20;;;9.70;99.90;;;;;;5072499;28;20423;-72
2021/03/14 12:05:15;;;;;;;3.30;1.30;;;9.30;99.90;;;;;;5072180;28;20206;-71
2021/03/14 12:07:40;;;;;;;1.67;1.57;;;8.60;99.90;;;;;;5072380;28;20177;-71
2021/03/14 12:10:07;;;;;;;5.70;1.70;;;8.20;99.90;;;;;;5072292;28;20177;-71
2021/03/14 12:12:32;;;;;;;2.40;1.40;;;7.70;99.90;;;;;;5072219;28;20165;-70
2021/03/14 12:14:58;;;;;;;3.83;1.40;;;7.40;99.90;;;;;;5072002;28;20433;-71
2021/03/14 12:17:24;;;;;;;4.87;1.83;;;7.30;99.90;;;;;;5072234;28;20216;-72
2021/03/14 12:19:50;;;;;;;3.23;1.17;;;7.30;99.90;;;;;;5072149;28;20165;-71
2021/03/14 12:22:16;;;;;;;2.40;1.30;;;7.20;99.90;;;;;;5071944;28;20514;-70
2021/03/14 12:24:42;;;;;;;2.50;1.27;;;7.20;99.90;;;;;;5072050;28;20553;-70
2021/03/14 12:27:08;;;;;;;4.90;1.50;;;7.00;99.90;;;;;;5072176;28;20482;-70
2021/03/14 12:29:33;;;;;;;8.43;1.50;;;6.90;99.90;;;;;;5072044;28;20187;-71
2021/03/14 12:31:59;;;;;;;2.30;1.30;;;6.90;99.90;;;;;;5072006;28;20189;-72
2021/03/14 12:34:24;;;;;;;3.23;1.67;;;6.60;99.90;;;;;;5071536;28;20196;-70
2021/03/14 12:36:50;;;;;;;2.30;1.43;;;6.40;99.90;;;;;;5070812;28;20671;-70
2021/03/14 12:39:15;;;;;;;3.03;1.47;;;6.20;99.90;;;;;;5071822;28;20173;-71
2021/03/14 12:41:41;;;;;;;2.10;1.30;;;5.90;99.90;;;;;;5071643;28;20697;-71
2021/03/14 12:44:06;;;;;;;3.50;1.30;;;5.80;99.90;;;;;;5071309;28;20234;-71
2021/03/14 12:46:32;;;;;;;1.33;1.17;;;5.80;99.90;;;;;;5071679;28;20582;-70
2021/03/14 12:48:57;;;;;;;6.13;2.23;;;5.70;99.90;;;;;;5071617;28;20181;-70
2021/03/14 12:51:23;;;;;;;4.93;2.10;;;5.60;99.90;;;;;;5071671;28;20197;-71
2021/03/14 12:53:49;;;;;;;3.53;1.90;;;5.60;99.90;;;;;;5071284;28;20260;-70
2021/03/14 12:56:14;;;;;;;5.57;2.27;;;5.60;99.90;;;;;;5071457;28;20347;-71
2021/03/14 12:58:40;;;;;;;3.57;1.87;;;5.50;99.90;;;;;;5071363;28;20180;-71
2021/03/14 13:01:06;;;;;;;3.13;1.57;;;5.40;99.90;;;;;;5071336;28;20194;-71
2021/03/14 13:03:32;;;;;;;6.13;3.20;;;5.20;99.90;;;;;;5069743;28;20183;-70